createdAt,value
2019-04-29T00:00:10.826Z,8.00
2019-04-29T00:02:39.296Z,8.17
2019-04-29T00:05:08.799Z,7.87
2019-04-29T00:07:37.439Z,7.10
2019-04-29T00:10:07.379Z,8.47
2019-04-29T00:12:35.855Z,8.30
2019-04-29T00:15:07.963Z,7.97
2019-04-29T00:17:43.471Z,9.27
2019-04-29T00:20:16.393Z,7.80
2019-04-29T00:22:44.803Z,9.07
2019-04-29T00:25:13.367Z,10.57
2019-04-29T00:27:42.155Z,10.20
2019-04-29T00:30:12.315Z,10.90
2019-04-29T00:32:40.693Z,10.63
2019-04-29T00:35:09.200Z,9.97
2019-04-29T00:37:39.240Z,8.73
2019-04-29T00:40:26.023Z,8.70
2019-04-29T00:42:56.077Z,8.53
2019-04-29T00:45:25.174Z,8.90
2019-04-29T00:47:53.578Z,8.40
2019-04-29T00:50:22.013Z,10.03
2019-04-29T00:52:50.493Z,10.40
2019-04-29T00:55:23.539Z,9.90
2019-04-29T00:57:51.942Z,9.40
2019-04-29T01:00:28.274Z,8.83
2019-04-29T01:02:56.684Z,9.03
2019-04-29T01:05:25.257Z,10.30
2019-04-29T01:07:53.662Z,12.53
2019-04-29T01:10:22.094Z,11.67
2019-04-29T01:12:50.573Z,13.97
2019-04-29T01:15:19.003Z,13.50
2019-04-29T01:17:47.411Z,13.27
2019-04-29T01:20:16.027Z,14.77
2019-04-29T01:22:44.501Z,11.80
2019-04-29T01:25:13.076Z,11.90
2019-04-29T01:27:48.741Z,11.67
2019-04-29T01:30:38.507Z,11.47
2019-04-29T01:33:06.986Z,10.70
2019-04-29T01:35:35.393Z,10.17
2019-04-29T01:38:03.823Z,10.40
2019-04-29T01:40:33.871Z,9.97
2019-04-29T01:43:02.303Z,14.37
2019-04-29T01:45:30.715Z,12.20
2019-04-29T01:47:59.140Z,9.93
2019-04-29T01:50:27.548Z,9.33
2019-04-29T01:52:55.981Z,10.90
2019-04-29T01:55:24.389Z,11.30
2019-04-29T01:57:52.815Z,9.93
2019-04-29T02:00:21.291Z,11.57
2019-04-29T02:02:49.723Z,10.10
2019-04-29T02:05:18.204Z,10.50
2019-04-29T02:07:46.634Z,9.63
2019-04-29T02:10:22.640Z,10.10
2019-04-29T02:12:51.072Z,9.87
2019-04-29T02:15:19.554Z,10.30
2019-04-29T02:17:47.983Z,8.43
2019-04-29T02:20:16.387Z,9.10
2019-04-29T02:22:49.458Z,9.00
2019-04-29T02:25:22.345Z,10.90
2019-04-29T02:27:50.782Z,10.60
2019-04-29T02:30:46.882Z,8.40
2019-04-29T02:33:15.378Z,10.13
2019-04-29T02:35:43.901Z,10.83
2019-04-29T02:38:14.062Z,8.00
2019-04-29T02:40:56.004Z,8.93
2019-04-29T02:43:26.075Z,10.50
2019-04-29T02:45:54.483Z,11.17
2019-04-29T02:48:22.914Z,9.83
2019-04-29T02:50:51.326Z,9.37
2019-04-29T02:53:19.717Z,9.27
2019-04-29T02:55:49.794Z,10.33
2019-04-29T02:58:19.853Z,11.10
2019-04-29T03:01:06.167Z,11.47
2019-04-29T03:03:39.069Z,13.73
2019-04-29T03:06:07.577Z,16.20
2019-04-29T03:08:35.981Z,17.30
2019-04-29T03:11:04.494Z,11.73
2019-04-29T03:13:32.896Z,14.00
2019-04-29T03:16:01.511Z,14.53
2019-04-29T03:18:31.701Z,16.23
2019-04-29T03:21:11.016Z,12.17
2019-04-29T03:23:39.417Z,12.50
2019-04-29T03:26:07.850Z,12.40
2019-04-29T03:28:36.254Z,13.17
2019-04-29T03:31:04.765Z,14.67
2019-04-29T03:33:33.163Z,14.40
2019-04-29T03:36:01.609Z,12.60
2019-04-29T03:38:30.014Z,13.67
2019-04-29T03:40:58.513Z,12.80
2019-04-29T03:43:26.995Z,11.73
2019-04-29T03:45:55.443Z,11.67
2019-04-29T03:48:23.932Z,12.00
2019-04-29T03:50:52.355Z,13.30
2019-04-29T03:53:20.762Z,12.13
2019-04-29T03:55:50.840Z,11.90
2019-04-29T03:58:19.247Z,13.47
2019-04-29T04:00:49.324Z,14.07
2019-04-29T04:03:22.336Z,12.87
2019-04-29T04:06:07.761Z,12.30
2019-04-29T04:08:37.806Z,14.33
2019-04-29T04:11:06.405Z,13.53
2019-04-29T04:13:34.798Z,12.93
2019-04-29T04:16:04.009Z,13.30
2019-04-29T04:18:34.052Z,11.00
2019-04-29T04:21:02.495Z,12.70
2019-04-29T04:23:30.906Z,13.50
2019-04-29T04:25:59.415Z,13.80
2019-04-29T04:28:27.828Z,13.20
2019-04-29T04:30:56.277Z,10.67
2019-04-29T04:33:24.673Z,10.03
2019-04-29T04:35:53.177Z,10.83
2019-04-29T04:38:21.584Z,10.17
2019-04-29T04:40:54.556Z,12.27
2019-04-29T04:43:22.963Z,10.93
2019-04-29T04:45:51.399Z,12.17
2019-04-29T04:48:19.804Z,11.10
2019-04-29T04:50:48.240Z,11.90
2019-04-29T04:53:16.648Z,12.10
2019-04-29T04:55:47.703Z,11.70
2019-04-29T04:58:16.115Z,11.47
2019-04-29T05:00:44.523Z,12.67
2019-04-29T05:03:12.963Z,12.60
2019-04-29T05:05:42.829Z,14.40
2019-04-29T05:08:11.350Z,14.30
2019-04-29T05:10:39.754Z,10.77
2019-04-29T05:13:08.194Z,15.57
2019-04-29T05:15:36.599Z,15.07
2019-04-29T05:18:05.112Z,16.43
2019-04-29T05:20:33.517Z,13.20
2019-04-29T05:23:01.964Z,15.20
2019-04-29T05:25:31.319Z,14.80
2019-04-29T05:27:59.886Z,13.60
2019-04-29T05:30:28.360Z,16.47
2019-04-29T05:32:56.866Z,16.93
2019-04-29T05:35:26.980Z,15.47
2019-04-29T05:37:59.564Z,15.30
2019-04-29T05:40:38.427Z,17.17
2019-04-29T05:43:09.927Z,15.73
2019-04-29T05:45:46.196Z,16.20
2019-04-29T05:48:17.459Z,16.80
2019-04-29T05:51:03.840Z,17.40
2019-04-29T05:53:42.537Z,13.20
2019-04-29T05:56:10.946Z,16.00
2019-04-29T05:58:39.651Z,13.13
2019-04-29T06:01:09.877Z,15.77
2019-04-29T06:03:39.759Z,17.53
2019-04-29T06:06:08.298Z,17.40
2019-04-29T06:08:39.107Z,16.40
2019-04-29T06:11:06.862Z,17.17
2019-04-29T06:13:35.300Z,16.90
2019-04-29T06:16:03.779Z,16.57
2019-04-29T06:18:32.190Z,19.27
2019-04-29T06:21:08.756Z,18.27
2019-04-29T06:23:30.751Z,18.37
2019-04-29T06:25:59.185Z,19.73
2019-04-29T06:28:28.182Z,18.07
2019-04-29T06:30:56.702Z,19.43
2019-04-29T06:33:28.993Z,17.40
2019-04-29T06:35:57.022Z,16.27
2019-04-29T06:38:25.475Z,18.13
2019-04-29T06:40:53.902Z,20.17
2019-04-29T06:43:24.471Z,17.93
2019-04-29T06:45:52.464Z,18.77
2019-04-29T06:48:20.869Z,14.80
2019-04-29T06:50:49.854Z,16.40
2019-04-29T06:53:21.531Z,15.43
2019-04-29T06:55:48.480Z,13.50
2019-04-29T06:58:16.871Z,17.80
2019-04-29T07:00:45.305Z,16.33
2019-04-29T07:03:13.715Z,16.60
2019-04-29T07:05:42.149Z,15.20
2019-04-29T07:08:10.564Z,17.47
2019-04-29T07:10:39.002Z,17.30
2019-04-29T07:13:07.409Z,15.10
2019-04-29T07:15:35.913Z,13.17
2019-04-29T07:18:04.763Z,16.60
2019-04-29T07:20:37.178Z,14.43
2019-04-29T07:23:03.332Z,17.10
2019-04-29T07:25:31.745Z,16.73
2019-04-29T07:28:00.177Z,16.93
2019-04-29T07:30:29.456Z,16.50
2019-04-29T07:32:58.102Z,18.90
2019-04-29T07:35:26.505Z,17.00
2019-04-29T07:37:54.950Z,16.40
2019-04-29T07:40:23.428Z,16.03
2019-04-29T07:42:51.864Z,16.50
2019-04-29T07:45:43.645Z,17.93
2019-04-29T07:48:05.776Z,18.33
2019-04-29T07:50:31.495Z,18.20
2019-04-29T07:52:59.934Z,16.67
2019-04-29T07:55:30.787Z,17.23
2019-04-29T07:57:58.504Z,18.57
2019-04-29T08:00:34.552Z,17.57
2019-04-29T08:03:04.526Z,18.30
2019-04-29T08:05:33.008Z,16.70
2019-04-29T08:08:01.612Z,19.40
2019-04-29T08:10:30.079Z,18.87
2019-04-29T08:12:59.661Z,16.47
2019-04-29T08:15:31.721Z,15.10
2019-04-29T08:18:06.395Z,17.87
2019-04-29T08:20:28.764Z,16.53
2019-04-29T08:22:58.433Z,13.50
2019-04-29T08:25:27.346Z,15.43
2019-04-29T08:27:55.793Z,13.10
2019-04-29T08:30:24.208Z,14.60
2019-04-29T08:32:52.648Z,17.03
2019-04-29T08:35:21.065Z,13.87
2019-04-29T08:37:49.522Z,15.30
2019-04-29T08:40:18.804Z,11.63
2019-04-29T08:42:54.583Z,10.83
2019-04-29T08:45:24.627Z,9.70
2019-04-29T08:47:53.903Z,9.67
2019-04-29T08:50:22.338Z,10.20
2019-04-29T08:52:50.753Z,9.97
2019-04-29T08:55:19.518Z,10.77
2019-04-29T08:57:47.979Z,10.17
2019-04-29T09:00:16.753Z,9.63
2019-04-29T09:02:47.351Z,10.20
2019-04-29T09:05:15.561Z,9.37
2019-04-29T09:07:44.037Z,8.83
2019-04-29T09:10:12.718Z,10.00
2019-04-29T09:12:41.204Z,8.80
2019-04-29T09:15:10.275Z,9.50
2019-04-29T09:17:38.684Z,8.57
2019-04-29T09:20:07.561Z,8.47
2019-04-29T09:22:37.608Z,9.73
2019-04-29T09:25:11.553Z,8.33
2019-04-29T09:27:45.010Z,8.70
2019-04-29T09:30:13.662Z,9.17
2019-04-29T09:32:42.069Z,8.50
2019-04-29T09:35:10.784Z,9.40
2019-04-29T09:37:39.195Z,7.80
2019-04-29T09:40:09.337Z,9.07
2019-04-29T09:42:45.520Z,9.97
2019-04-29T09:45:14.690Z,8.00
2019-04-29T09:47:44.075Z,8.87
2019-04-29T09:50:12.982Z,7.80
2019-04-29T09:52:41.476Z,8.73
2019-04-29T09:55:10.170Z,7.23
2019-04-29T09:57:38.580Z,8.43
2019-04-29T10:00:09.727Z,8.90
2019-04-29T10:02:39.771Z,8.97
2019-04-29T10:05:16.591Z,8.40
2019-04-29T10:07:45.075Z,10.10
2019-04-29T10:10:13.655Z,9.83
2019-04-29T10:12:42.092Z,9.53
2019-04-29T10:15:12.478Z,9.63
2019-04-29T10:17:45.814Z,10.20
2019-04-29T10:20:20.295Z,8.70
2019-04-29T10:22:50.188Z,9.17
2019-04-29T10:25:19.465Z,9.17
2019-04-29T10:27:47.905Z,9.00
2019-04-29T10:30:18.432Z,8.87
2019-04-29T10:32:46.931Z,9.00
2019-04-29T10:35:15.617Z,8.83
2019-04-29T10:37:44.038Z,8.40
2019-04-29T10:40:20.494Z,8.27
2019-04-29T10:42:50.564Z,9.67
2019-04-29T10:45:23.169Z,8.27
2019-04-29T10:47:59.138Z,9.50
2019-04-29T10:50:30.351Z,8.40
2019-04-29T10:52:59.060Z,9.03
2019-04-29T10:55:30.060Z,8.20
2019-04-29T10:57:57.750Z,8.37
2019-04-29T11:01:03.120Z,7.50
2019-04-29T11:03:31.552Z,8.23
2019-04-29T11:06:01.771Z,10.53
2019-04-29T11:08:33.819Z,9.93
2019-04-29T11:11:02.700Z,7.93
2019-04-29T11:13:31.335Z,8.20
2019-04-29T11:15:59.737Z,6.77
2019-04-29T11:18:28.167Z,9.13
2019-04-29T11:20:56.566Z,8.20
2019-04-29T11:23:32.440Z,7.60
2019-04-29T11:26:02.545Z,8.83
2019-04-29T11:28:32.689Z,7.70
2019-04-29T11:31:01.239Z,7.17
2019-04-29T11:33:31.371Z,6.90
2019-04-29T11:36:07.282Z,6.60
2019-04-29T11:38:38.296Z,7.40
2019-04-29T11:41:05.980Z,7.13
2019-04-29T11:43:34.776Z,6.23
2019-04-29T11:46:03.180Z,7.47
2019-04-29T11:48:31.606Z,7.63
2019-04-29T11:51:04.124Z,7.43
2019-04-29T11:53:32.621Z,7.50
2019-04-29T11:56:01.030Z,7.57
2019-04-29T11:58:47.235Z,7.20
2019-04-29T12:01:17.279Z,8.10
2019-04-29T12:03:51.381Z,7.47
2019-04-29T12:06:21.086Z,7.70
2019-04-29T12:08:53.085Z,6.37
2019-04-29T12:11:20.861Z,6.90
2019-04-29T12:13:53.866Z,7.20
2019-04-29T12:16:26.583Z,6.67
2019-04-29T12:19:11.711Z,6.60
2019-04-29T12:21:42.099Z,5.60
2019-04-29T12:24:10.805Z,6.60
2019-04-29T12:26:43.183Z,6.70
2019-04-29T12:29:09.332Z,7.07
2019-04-29T12:31:44.885Z,6.57
2019-04-29T12:34:26.864Z,7.73
2019-04-29T12:36:56.854Z,6.57
2019-04-29T12:39:43.476Z,6.93
2019-04-29T12:42:24.134Z,6.77
2019-04-29T12:44:56.628Z,6.87
2019-04-29T12:47:27.256Z,6.93
2019-04-29T12:49:55.779Z,5.70
2019-04-29T12:52:24.255Z,6.40
2019-04-29T12:54:52.683Z,6.60
2019-04-29T12:57:23.568Z,6.90
2019-04-29T12:59:54.350Z,6.03
2019-04-29T13:02:24.215Z,6.13
2019-04-29T13:04:54.833Z,6.73
2019-04-29T13:07:30.319Z,6.20
2019-04-29T13:10:06.989Z,7.10
2019-04-29T13:12:39.779Z,6.10
2019-04-29T13:15:20.533Z,7.10
2019-04-29T13:18:02.828Z,7.30
2019-04-29T13:20:20.798Z,7.83
2019-04-29T13:22:49.264Z,7.50
2019-04-29T13:25:19.696Z,7.90
2019-04-29T13:27:47.962Z,6.23
2019-04-29T13:30:16.551Z,7.10
2019-04-29T13:32:44.938Z,7.10
2019-04-29T13:35:13.777Z,7.77
2019-04-29T13:37:42.179Z,8.10
2019-04-29T13:40:12.229Z,7.43
2019-04-29T13:42:48.543Z,7.57
2019-04-29T13:45:13.973Z,7.57
2019-04-29T13:47:56.229Z,7.90
2019-04-29T13:50:38.707Z,8.20
2019-04-29T13:52:59.031Z,8.30
2019-04-29T13:55:47.352Z,8.67
2019-04-29T13:57:57.589Z,7.73
2019-04-29T14:00:27.702Z,8.20
2019-04-29T14:02:59.108Z,8.43
2019-04-29T14:05:32.530Z,8.30
2019-04-29T14:07:59.754Z,7.60
2019-04-29T14:10:28.160Z,7.57
2019-04-29T14:13:09.064Z,7.00
2019-04-29T14:15:29.687Z,7.77
2019-04-29T14:17:56.913Z,7.13
2019-04-29T14:20:25.318Z,7.33
2019-04-29T14:22:54.419Z,7.07
2019-04-29T14:25:22.827Z,7.40
2019-04-29T14:27:51.266Z,7.70
2019-04-29T14:30:21.275Z,8.73
2019-04-29T14:32:51.427Z,6.47
2019-04-29T14:35:36.096Z,6.90
2019-04-29T14:38:05.115Z,6.17
2019-04-29T14:40:33.702Z,6.30
2019-04-29T14:43:28.605Z,6.00
2019-04-29T14:45:54.911Z,7.27
2019-04-29T14:48:41.715Z,6.20
2019-04-29T14:51:01.531Z,7.00
2019-04-29T14:53:29.964Z,6.33
2019-04-29T14:55:58.368Z,7.70
2019-04-29T14:58:26.811Z,6.73
2019-04-29T15:00:56.921Z,7.30
2019-04-29T15:03:27.050Z,6.63
2019-04-29T15:05:55.554Z,7.63
2019-04-29T15:08:23.990Z,6.40
2019-04-29T15:10:53.823Z,8.17
2019-04-29T15:13:23.783Z,7.33
2019-04-29T15:16:04.878Z,7.00
2019-04-29T15:18:47.249Z,7.37
2019-04-29T15:21:06.374Z,7.27
2019-04-29T15:23:35.294Z,6.70
2019-04-29T15:26:03.696Z,6.60
2019-04-29T15:28:33.774Z,6.77
2019-04-29T15:31:02.247Z,6.93
2019-04-29T15:33:34.743Z,5.90
2019-04-29T15:36:01.664Z,8.20
2019-04-29T15:38:30.265Z,7.57
2019-04-29T15:40:58.693Z,7.87
2019-04-29T15:43:45.620Z,7.03
2019-04-29T15:45:57.245Z,7.20
2019-04-29T15:48:25.650Z,6.50
2019-04-29T15:50:54.090Z,7.77
2019-04-29T15:53:22.498Z,6.47
2019-04-29T15:55:59.545Z,5.70
2019-04-29T15:58:22.490Z,6.70
2019-04-29T16:00:51.220Z,6.13
2019-04-29T16:03:20.561Z,5.83
2019-04-29T16:06:10.991Z,5.60
2019-04-29T16:08:29.586Z,5.80
2019-04-29T16:11:15.991Z,5.97
2019-04-29T16:13:48.152Z,5.80
2019-04-29T16:16:14.549Z,5.47
2019-04-29T16:18:42.959Z,5.90
2019-04-29T16:21:11.398Z,6.97
2019-04-29T16:23:40.354Z,5.80
2019-04-29T16:26:08.821Z,6.33
2019-04-29T16:28:40.160Z,5.70
2019-04-29T16:31:12.049Z,5.57
2019-04-29T16:33:37.510Z,6.20
2019-04-29T16:36:06.366Z,5.77
2019-04-29T16:38:34.921Z,5.57
2019-04-29T16:41:04.996Z,5.50
2019-04-29T16:43:35.266Z,6.20
2019-04-29T16:46:05.380Z,5.97
2019-04-29T16:48:33.850Z,6.27
2019-04-29T16:51:06.670Z,6.27
2019-04-29T16:53:32.428Z,5.50
2019-04-29T16:56:00.834Z,5.83
2019-04-29T16:58:29.267Z,6.60
2019-04-29T17:00:57.673Z,5.73
2019-04-29T17:03:26.107Z,6.50
2019-04-29T17:05:54.510Z,5.90
2019-04-29T17:08:24.576Z,6.20
2019-04-29T17:11:11.910Z,5.60
2019-04-29T17:13:40.187Z,5.97
2019-04-29T17:16:10.228Z,6.67
2019-04-29T17:18:38.660Z,6.07
2019-04-29T17:21:07.565Z,5.43
2019-04-29T17:23:36.064Z,6.40
2019-04-29T17:26:04.516Z,6.10
2019-04-29T17:28:37.378Z,6.30
2019-04-29T17:31:12.448Z,6.50
2019-04-29T17:33:49.657Z,5.50
2019-04-29T17:36:12.403Z,6.07
2019-04-29T17:38:40.827Z,6.40
2019-04-29T17:41:09.231Z,6.93
2019-04-29T17:43:45.060Z,6.30
2019-04-29T17:46:33.101Z,6.47
2019-04-29T17:49:03.170Z,6.03
2019-04-29T17:51:31.748Z,7.30
2019-04-29T17:54:13.892Z,6.70
2019-04-29T17:56:45.049Z,6.20
2019-04-29T17:59:29.441Z,6.30
2019-04-29T18:02:20.774Z,6.63
2019-04-29T18:04:58.500Z,6.87
2019-04-29T18:07:28.553Z,6.80
2019-04-29T18:10:01.037Z,6.67
2019-04-29T18:12:29.456Z,6.13
2019-04-29T18:14:57.884Z,5.63
2019-04-29T18:17:31.136Z,7.07
2019-04-29T18:20:29.753Z,6.80
2019-04-29T18:22:52.449Z,6.90
2019-04-29T18:25:30.816Z,6.90
2019-04-29T18:28:00.049Z,6.00
2019-04-29T18:30:35.417Z,5.97
2019-04-29T18:32:57.419Z,7.10
2019-04-29T18:35:25.907Z,6.23
2019-04-29T18:37:55.730Z,7.27
2019-04-29T18:40:25.832Z,7.03
2019-04-29T18:42:55.422Z,7.30
2019-04-29T18:45:25.429Z,6.73
2019-04-29T18:47:54.031Z,6.90
2019-04-29T18:50:22.464Z,7.17
2019-04-29T18:52:50.873Z,6.90
2019-04-29T18:55:19.315Z,7.00
2019-04-29T18:57:47.723Z,7.50
2019-04-29T19:00:20.058Z,8.00
2019-04-29T19:02:52.440Z,7.53
2019-04-29T19:05:26.385Z,7.27
2019-04-29T19:08:00.083Z,8.00
2019-04-29T19:10:32.964Z,7.90
2019-04-29T19:12:59.792Z,8.07
2019-04-29T19:15:25.621Z,8.23
2019-04-29T19:18:01.334Z,7.87
2019-04-29T19:20:25.131Z,7.73
2019-04-29T19:23:05.376Z,7.83
2019-04-29T19:25:25.510Z,7.73
2019-04-29T19:27:55.600Z,8.40
2019-04-29T19:30:27.046Z,8.10
2019-04-29T19:33:00.237Z,8.03
2019-04-29T19:35:25.283Z,9.40
2019-04-29T19:37:53.715Z,7.87
2019-04-29T19:40:22.121Z,7.60
2019-04-29T19:42:50.548Z,8.80
2019-04-29T19:45:19.023Z,9.20
2019-04-29T19:47:52.958Z,8.90
2019-04-29T19:50:19.572Z,8.20
2019-04-29T19:52:47.748Z,9.20
2019-04-29T19:55:16.226Z,8.27
2019-04-29T19:57:50.243Z,9.57
2019-04-29T20:00:17.176Z,9.60
2019-04-29T20:02:46.503Z,8.50
2019-04-29T20:05:23.945Z,8.63
2019-04-29T20:07:50.998Z,9.30
2019-04-29T20:10:20.882Z,9.80
2019-04-29T20:12:53.004Z,9.20
2019-04-29T20:15:20.620Z,9.33
2019-04-29T20:18:07.389Z,9.50
2019-04-29T20:20:46.438Z,9.20
2019-04-29T20:23:20.010Z,9.10
2019-04-29T20:25:48.070Z,8.97
2019-04-29T20:28:18.379Z,8.83
2019-04-29T20:30:45.784Z,9.27
2019-04-29T20:33:16.104Z,9.87
2019-04-29T20:35:49.038Z,10.73
2019-04-29T20:38:15.833Z,9.20
2019-04-29T20:40:46.437Z,9.57
2019-04-29T20:43:16.074Z,10.43
2019-04-29T20:45:45.475Z,10.10
2019-04-29T20:48:16.013Z,10.03
2019-04-29T20:50:46.095Z,9.23
2019-04-29T20:53:16.266Z,9.43
2019-04-29T20:55:46.030Z,9.40
2019-04-29T20:58:15.633Z,10.33
2019-04-29T21:00:45.186Z,10.57
2019-04-29T21:03:13.875Z,8.90
2019-04-29T21:05:48.233Z,9.80
2019-04-29T21:08:16.404Z,9.80
2019-04-29T21:10:44.610Z,9.40
2019-04-29T21:13:30.847Z,10.27
2019-04-29T21:16:12.674Z,9.20
2019-04-29T21:18:47.425Z,9.43
2019-04-29T21:21:11.227Z,8.80
2019-04-29T21:23:39.627Z,9.40
2019-04-29T21:26:08.770Z,9.20
2019-04-29T21:28:41.159Z,10.00
2019-04-29T21:31:11.645Z,9.93
2019-04-29T21:33:37.876Z,9.07
2019-04-29T21:36:17.116Z,9.83
2019-04-29T21:38:48.601Z,10.37
2019-04-29T21:41:21.912Z,9.57
2019-04-29T21:43:53.630Z,10.33
2019-04-29T21:46:28.478Z,10.10
2019-04-29T21:48:52.190Z,9.80
2019-04-29T21:51:20.626Z,10.10
2019-04-29T21:53:49.038Z,10.20
2019-04-29T21:56:17.471Z,10.33
2019-04-29T21:58:45.879Z,9.90
2019-04-29T22:01:15.280Z,10.00
2019-04-29T22:03:43.875Z,10.20
2019-04-29T22:06:12.311Z,10.97
2019-04-29T22:08:40.715Z,10.03
2019-04-29T22:11:09.221Z,10.17
2019-04-29T22:13:39.198Z,10.17
2019-04-29T22:16:11.588Z,12.20
2019-04-29T22:18:38.081Z,9.83
2019-04-29T22:21:09.870Z,10.53
2019-04-29T22:23:36.914Z,9.70
2019-04-29T22:26:05.425Z,9.70
2019-04-29T22:28:35.082Z,9.97
2019-04-29T22:31:05.402Z,9.63
2019-04-29T22:33:34.915Z,10.50
2019-04-29T22:36:05.365Z,10.80
2019-04-29T22:38:35.848Z,10.37
2019-04-29T22:41:06.009Z,10.60
2019-04-29T22:43:40.236Z,10.93
2019-04-29T22:46:10.558Z,10.37
2019-04-29T22:48:40.600Z,11.20
2019-04-29T22:51:10.055Z,10.00
2019-04-29T22:53:40.052Z,9.30
2019-04-29T22:56:14.118Z,9.40
2019-04-29T22:58:43.933Z,9.77
2019-04-29T23:01:10.025Z,10.53
2019-04-29T23:03:38.845Z,10.77
2019-04-29T23:06:08.481Z,10.53
2019-04-29T23:08:38.242Z,11.17
2019-04-29T23:11:06.756Z,9.80
2019-04-29T23:13:35.466Z,11.17
2019-04-29T23:16:05.329Z,10.20
2019-04-29T23:18:42.188Z,9.73
2019-04-29T23:21:11.081Z,9.67
2019-04-29T23:23:45.407Z,10.70
2019-04-29T23:26:14.847Z,10.40
2019-04-29T23:28:45.742Z,8.77
2019-04-29T23:31:14.303Z,9.80
2019-04-29T23:33:42.738Z,7.83
2019-04-29T23:36:14.262Z,9.20
2019-04-29T23:38:42.858Z,9.10
2019-04-29T23:41:11.432Z,9.17
2019-04-29T23:43:39.943Z,10.50
2019-04-29T23:46:08.351Z,11.20
2019-04-29T23:48:39.436Z,12.10
2019-04-29T23:51:06.921Z,11.80
2019-04-29T23:53:35.358Z,11.47
2019-04-29T23:56:05.716Z,11.10
2019-04-29T23:58:47.748Z,11.40
